Time;durP1;ratioP1;P1;durP2;ratioP2;P2;SDS_P1;SDS_P2;PMS_P1;PMS_P2;Temp;Humidity;BMP_temperature;BMP_pressure;BME280_temperature;BME280_humidity;BME280_pressure;Samples;Min_cycle;Max_cycle;Signal;HPM_P1;HPM_P2
2022/09/07 00:01:26;;;;;;;9.48;6.65;;;19.10;99.90;;;;;;5092759;28;20036;-72
2022/09/07 00:03:56;;;;;;;12.93;7.15;;;19.10;99.90;;;;;;5109053;28;20043;-72
2022/09/07 00:06:21;;;;;;;9.90;6.90;;;19.10;99.90;;;;;;5111447;28;20511;-72
2022/09/07 00:08:47;;;;;;;11.98;7.20;;;19.10;99.90;;;;;;5095901;28;20040;-71
2022/09/07 00:11:15;;;;;;;11.00;6.90;;;19.10;99.90;;;;;;5106350;28;20043;-71
2022/09/07 00:13:42;;;;;;;10.85;7.30;;;19.10;99.90;;;;;;5110966;28;20058;-72
2022/09/07 00:16:11;;;;;;;10.50;7.35;;;19.20;99.90;;;;;;5112618;28;20122;-71
2022/09/07 00:18:37;;;;;;;12.90;7.63;;;19.20;99.90;;;;;;5092253;28;20044;-71
2022/09/07 00:21:05;;;;;;;10.88;7.45;;;19.10;99.90;;;;;;5091146;28;20063;-71
2022/09/07 00:23:32;;;;;;;9.25;7.25;;;19.10;99.90;;;;;;5111401;28;20047;-72
2022/09/07 00:26:03;;;;;;;9.65;7.22;;;19.10;99.90;;;;;;5113938;28;20036;-72
2022/09/07 00:28:29;;;;;;;11.43;7.50;;;19.00;99.90;;;;;;5110595;28;20448;-72
2022/09/07 00:30:55;;;;;;;12.75;7.00;;;19.00;99.90;;;;;;5112148;28;20035;-72
2022/09/07 00:33:21;;;;;;;9.95;7.18;;;19.00;99.90;;;;;;5099044;28;20093;-72
2022/09/07 00:35:46;;;;;;;9.93;7.07;;;19.00;99.90;;;;;;5096685;28;20402;-72
2022/09/07 00:38:12;;;;;;;9.90;7.20;;;19.00;99.90;;;;;;5098521;28;20042;-72
2022/09/07 00:40:37;;;;;;;9.73;7.03;;;19.10;99.90;;;;;;5112378;28;20050;-72
2022/09/07 00:43:04;;;;;;;10.88;6.97;;;19.10;99.90;;;;;;5142836;27;20413;-72
2022/09/07 00:45:30;;;;;;;9.70;7.20;;;19.00;99.90;;;;;;5095297;28;20040;-72
2022/09/07 00:48:09;;;;;;;11.88;7.57;;;18.90;99.90;;;;;;5097615;28;20070;-71
2022/09/07 00:51:01;;;;;;;9.77;6.90;;;18.80;99.90;;;;;;5091878;28;20028;-71
2022/09/07 00:53:40;;;;;;;9.75;7.32;;;18.70;99.90;;;;;;5092581;28;20044;-71
2022/09/07 00:56:08;;;;;;;10.90;6.68;;;18.70;99.90;;;;;;5093190;28;20043;-71
2022/09/07 00:58:36;;;;;;;10.38;7.60;;;18.90;99.90;;;;;;5092654;28;20044;-71
2022/09/07 01:01:02;;;;;;;9.18;7.10;;;18.90;99.90;;;;;;5075463;28;20055;-71
2022/09/07 01:03:39;;;;;;;10.25;6.95;;;19.00;99.90;;;;;;5091721;28;20032;-72
2022/09/07 01:06:26;;;;;;;13.43;8.40;;;19.10;99.90;;;;;;5111234;28;20364;-71
2022/09/07 01:08:53;;;;;;;11.13;7.53;;;18.90;99.90;;;;;;5091764;28;20048;-71
2022/09/07 01:11:21;;;;;;;13.38;8.73;;;18.70;99.90;;;;;;5125857;28;20542;-72
2022/09/07 01:13:49;;;;;;;13.88;8.10;;;19.00;99.90;;;;;;5092162;28;20070;-72
2022/09/07 01:16:33;;;;;;;11.68;8.25;;;19.10;99.90;;;;;;5098360;28;20109;-71
2022/09/07 01:19:33;;;;;;;12.88;9.07;;;19.10;99.90;;;;;;5091666;28;20130;-71
2022/09/07 01:22:21;;;;;;;13.48;8.35;;;18.80;99.90;;;;;;5092987;28;20040;-71
2022/09/07 01:25:22;;;;;;;11.48;8.27;;;18.70;99.90;;;;;;5111934;28;20046;-72
2022/09/07 01:28:09;;;;;;;13.02;8.18;;;18.80;99.90;;;;;;5110781;28;20500;-73
2022/09/07 01:30:37;;;;;;;11.27;8.90;;;18.90;99.90;;;;;;5092848;28;20540;-73
2022/09/07 01:34:00;;;;;;;12.93;9.48;;;18.90;99.90;;;;;;5114771;28;20519;-72
2022/09/07 01:36:34;;;;;;;13.10;9.52;;;18.70;99.90;;;;;;5036650;28;20055;-73
2022/09/07 01:39:04;;;;;;;12.73;8.77;;;18.60;99.90;;;;;;5036728;28;20040;-72
2022/09/07 01:41:46;;;;;;;14.05;10.02;;;18.60;99.90;;;;;;5085626;28;20054;-72
2022/09/07 01:44:25;;;;;;;12.85;9.80;;;18.70;99.90;;;;;;5110230;28;20039;-72
2022/09/07 01:47:08;;;;;;;12.60;9.88;;;18.60;99.90;;;;;;5097228;28;20051;-73
2022/09/07 01:49:54;;;;;;;12.27;10.30;;;18.40;99.90;;;;;;5114615;28;20043;-71
2022/09/07 01:52:25;;;;;;;12.82;11.00;;;18.50;99.90;;;;;;5114593;28;20047;-72
2022/09/07 01:55:07;;;;;;;16.13;11.48;;;18.30;99.90;;;;;;5107272;28;20062;-69
2022/09/07 01:57:35;;;;;;;;;;;18.30;99.90;;;;;;5107242;28;20436;-70
2022/09/07 02:00:08;;;;;;;13.18;11.60;;;18.30;99.90;;;;;;5116618;28;20031;-69
2022/09/07 02:02:58;;;;;;;14.95;12.15;;;18.30;99.90;;;;;;5115610;28;20149;-70
2022/09/07 02:05:29;;;;;;;18.73;12.40;;;18.20;99.90;;;;;;5114983;28;20044;-71
2022/09/07 02:08:25;;;;;;;16.17;10.85;;;18.10;99.90;;;;;;5114190;28;20040;-69
2022/09/07 02:10:59;;;;;;;13.30;9.80;;;18.20;99.90;;;;;;5110882;27;20225;-71
2022/09/07 02:13:42;;;;;;;13.15;9.90;;;18.40;99.90;;;;;;5106165;27;20093;-72
2022/09/07 02:16:19;;;;;;;14.90;10.73;;;18.50;99.90;;;;;;5094303;27;20150;-71
2022/09/07 02:18:48;;;;;;;13.18;9.32;;;18.40;99.90;;;;;;5101290;27;21606;-71
2022/09/07 02:21:18;;;;;;;9.77;7.25;;;18.50;99.90;;;;;;5107831;27;20039;-71
2022/09/07 02:23:59;;;;;;;10.75;7.00;;;18.50;99.90;;;;;;5115954;27;20043;-70
2022/09/07 02:26:27;;;;;;;11.48;7.32;;;18.60;99.90;;;;;;5093833;28;20040;-70
2022/09/07 02:28:53;;;;;;;9.68;6.53;;;18.50;99.90;;;;;;5113824;28;20387;-70
2022/09/07 02:31:19;;;;;;;10.63;6.85;;;18.40;99.90;;;;;;5112757;28;20032;-70
2022/09/07 02:33:44;;;;;;;11.00;6.80;;;18.40;99.90;;;;;;5098839;28;20040;-70
2022/09/07 02:36:13;;;;;;;10.35;6.68;;;18.40;99.90;;;;;;5111844;28;20077;-70
2022/09/07 02:38:39;;;;;;;11.85;6.90;;;18.30;99.90;;;;;;5091773;28;20044;-70
2022/09/07 02:41:25;;;;;;;8.50;5.88;;;18.30;99.90;;;;;;5104076;28;20054;-70
2022/09/07 02:43:51;;;;;;;10.73;6.95;;;18.40;99.90;;;;;;5099461;28;20403;-70
2022/09/07 02:46:57;;;;;;;9.75;6.50;;;18.40;99.90;;;;;;5119969;27;20044;-70
2022/09/07 02:49:42;;;;;;;11.23;6.60;;;18.40;99.90;;;;;;5108530;28;20038;-70
2022/09/07 02:52:32;;;;;;;12.20;6.40;;;18.50;99.90;;;;;;5105107;28;20085;-71
2022/09/07 02:55:01;;;;;;;9.07;6.32;;;18.50;99.90;;;;;;5094938;28;20427;-70
2022/09/07 02:57:45;;;;;;;11.23;6.65;;;18.50;99.90;;;;;;5108808;28;20054;-70
2022/09/07 03:00:15;;;;;;;9.30;6.13;;;18.40;99.90;;;;;;5113805;28;20044;-70
2022/09/07 03:02:45;;;;;;;8.55;5.78;;;18.40;99.90;;;;;;5127691;27;20077;-69
2022/09/07 03:05:26;;;;;;;8.27;6.43;;;18.40;99.90;;;;;;5111101;28;20051;-70
2022/09/07 03:07:54;;;;;;;9.05;6.00;;;18.30;99.90;;;;;;5112783;27;20044;-69
2022/09/07 03:10:20;;;;;;;10.30;5.72;;;18.30;99.90;;;;;;5111159;28;20032;-69
2022/09/07 03:12:48;;;;;;;8.65;5.18;;;18.20;99.90;;;;;;5109357;28;20036;-69
2022/09/07 03:15:17;;;;;;;9.57;5.82;;;18.40;99.90;;;;;;5111159;28;20054;-69
2022/09/07 03:17:44;;;;;;;8.85;6.00;;;18.30;99.90;;;;;;5111435;28;20028;-69
2022/09/07 03:20:10;;;;;;;9.55;5.57;;;18.20;99.90;;;;;;5109954;28;20549;-70
2022/09/07 03:22:36;;;;;;;8.32;4.85;;;18.10;99.90;;;;;;5105113;28;20043;-69
2022/09/07 03:25:03;;;;;;;8.68;6.05;;;18.20;99.90;;;;;;5111179;28;20039;-70
2022/09/07 03:27:31;;;;;;;9.18;6.20;;;18.10;99.90;;;;;;5101573;27;20067;-69
2022/09/07 03:29:58;;;;;;;8.07;5.25;;;17.90;99.90;;;;;;5108306;28;20036;-69
2022/09/07 03:32:28;;;;;;;8.40;5.22;;;17.90;99.90;;;;;;5089926;28;20114;-69
2022/09/07 03:34:53;;;;;;;9.95;6.43;;;18.00;99.90;;;;;;5100176;28;20488;-69
2022/09/07 03:37:19;;;;;;;8.88;6.43;;;18.00;99.90;;;;;;5106870;28;20062;-70
2022/09/07 03:39:44;;;;;;;8.30;6.30;;;18.00;99.90;;;;;;5130512;27;20044;-69
2022/09/07 03:42:10;;;;;;;8.73;5.68;;;18.00;99.90;;;;;;5103541;28;20040;-69
2022/09/07 03:44:36;;;;;;;12.55;6.88;;;18.00;99.90;;;;;;5109002;28;20066;-69
2022/09/07 03:47:01;;;;;;;10.38;7.30;;;18.00;99.90;;;;;;5095570;28;20408;-69
2022/09/07 03:49:27;;;;;;;11.85;7.63;;;17.70;99.90;;;;;;5125126;27;20153;-69
2022/09/07 03:51:52;;;;;;;10.13;7.47;;;17.60;99.90;;;;;;5104265;27;20111;-69
2022/09/07 03:54:18;;;;;;;10.85;7.55;;;17.50;99.90;;;;;;5114333;28;20081;-69
2022/09/07 03:56:43;;;;;;;10.13;8.32;;;17.40;99.90;;;;;;5111535;28;20040;-69
2022/09/07 03:59:09;;;;;;;11.27;8.70;;;17.40;99.90;;;;;;5114198;28;20035;-69
2022/09/07 04:01:35;;;;;;;12.05;9.25;;;17.40;99.90;;;;;;5104487;27;20031;-69
2022/09/07 04:04:03;;;;;;;13.40;10.80;;;17.30;99.90;;;;;;5109448;28;20062;-69
2022/09/07 04:06:30;;;;;;;12.70;10.48;;;17.30;99.90;;;;;;5106271;28;20040;-70
2022/09/07 04:08:55;;;;;;;14.77;11.68;;;17.40;99.90;;;;;;5092990;28;20032;-71
2022/09/07 04:11:21;;;;;;;16.08;14.38;;;17.40;99.90;;;;;;5090184;28;20089;-70
2022/09/07 04:13:47;;;;;;;18.75;16.02;;;17.50;99.90;;;;;;5133237;27;20072;-69
2022/09/07 04:16:18;;;;;;;19.48;17.17;;;17.40;99.90;;;;;;5110575;28;20035;-70
2022/09/07 04:18:44;;;;;;;19.25;16.67;;;17.20;99.90;;;;;;5113828;28;20062;-70
2022/09/07 04:21:09;;;;;;;16.92;15.13;;;17.30;99.90;;;;;;5105836;27;20492;-70
2022/09/07 04:23:42;;;;;;;18.42;16.52;;;17.30;99.90;;;;;;5111724;28;20036;-70
2022/09/07 04:26:23;;;;;;;18.13;15.23;;;17.20;99.90;;;;;;5112606;28;20042;-69
2022/09/07 04:28:49;;;;;;;18.48;16.45;;;17.20;99.90;;;;;;5110919;28;20092;-69
2022/09/07 04:31:16;;;;;;;19.00;17.00;;;17.10;99.90;;;;;;5096431;28;20495;-69
2022/09/07 04:33:43;;;;;;;20.98;17.65;;;17.10;99.90;;;;;;5113537;28;20117;-69
2022/09/07 04:36:09;;;;;;;19.58;17.55;;;17.10;99.90;;;;;;5111651;28;20031;-69
2022/09/07 04:38:35;;;;;;;21.05;18.08;;;17.20;99.90;;;;;;5120280;28;20035;-69
2022/09/07 04:41:05;;;;;;;21.67;18.15;;;17.20;99.90;;;;;;5087406;28;20051;-69
2022/09/07 04:43:31;;;;;;;21.98;18.25;;;17.10;99.90;;;;;;5113283;28;20028;-69
2022/09/07 04:46:00;;;;;;;20.20;16.48;;;17.10;99.90;;;;;;5095780;28;20080;-69
2022/09/07 04:48:25;;;;;;;17.88;15.98;;;17.20;99.90;;;;;;5102276;28;20361;-69
2022/09/07 04:50:51;;;;;;;18.15;15.85;;;17.30;99.90;;;;;;5100899;28;20046;-69
2022/09/07 04:53:17;;;;;;;19.15;17.15;;;17.40;99.90;;;;;;5109997;28;20399;-69
2022/09/07 04:55:42;;;;;;;18.15;16.25;;;17.40;99.90;;;;;;5105484;28;20047;-70
2022/09/07 04:58:08;;;;;;;18.67;15.82;;;17.40;99.90;;;;;;5113463;28;20051;-70
2022/09/07 05:00:34;;;;;;;18.75;16.05;;;17.50;99.90;;;;;;5110506;28;20036;-70
2022/09/07 05:03:00;;;;;;;20.50;16.60;;;17.50;99.90;;;;;;5103161;28;20144;-69
2022/09/07 05:05:25;;;;;;;18.30;15.27;;;17.50;99.90;;;;;;5108597;28;20059;-70
2022/09/07 05:07:51;;;;;;;17.30;15.25;;;17.60;99.90;;;;;;5099326;28;20048;-70
2022/09/07 05:10:17;;;;;;;17.33;15.52;;;17.70;99.90;;;;;;5110820;28;20043;-69
2022/09/07 05:12:42;;;;;;;14.60;13.10;;;17.60;99.90;;;;;;5100155;28;20032;-69
2022/09/07 05:15:08;;;;;;;17.70;15.35;;;17.60;99.90;;;;;;5109434;27;20047;-69
2022/09/07 05:17:34;;;;;;;17.33;15.52;;;17.60;99.90;;;;;;5108093;28;20047;-70
2022/09/07 05:19:59;;;;;;;16.25;14.52;;;17.60;99.90;;;;;;5115499;27;20044;-69
2022/09/07 05:22:25;;;;;;;16.42;14.73;;;17.60;99.90;;;;;;5103054;28;20038;-69
2022/09/07 05:24:51;;;;;;;18.40;16.40;;;17.60;99.90;;;;;;5100479;28;20552;-69
2022/09/07 05:27:17;;;;;;;16.63;14.95;;;17.60;99.90;;;;;;5130482;27;20039;-70
2022/09/07 05:29:42;;;;;;;19.90;16.10;;;17.60;99.90;;;;;;5108183;28;20086;-70
2022/09/07 05:32:08;;;;;;;18.55;15.25;;;17.60;99.90;;;;;;5096292;28;20036;-69
2022/09/07 05:34:33;;;;;;;19.35;15.70;;;17.70;99.90;;;;;;5106067;27;20146;-69
2022/09/07 05:37:00;;;;;;;21.65;17.67;;;17.70;99.90;;;;;;5118159;27;20035;-69
2022/09/07 05:39:26;;;;;;;18.83;16.65;;;17.60;99.90;;;;;;5114029;27;20054;-70
2022/09/07 05:41:52;;;;;;;19.10;17.10;;;17.60;99.90;;;;;;5110775;27;20039;-70
2022/09/07 05:44:18;;;;;;;18.67;16.73;;;17.60;99.90;;;;;;5111807;28;20035;-70
2022/09/07 05:46:44;;;;;;;18.33;16.48;;;17.50;99.90;;;;;;5112278;28;20036;-70
2022/09/07 05:49:09;;;;;;;20.23;18.13;;;17.50;99.90;;;;;;5097670;28;20458;-69
2022/09/07 05:51:36;;;;;;;21.23;17.98;;;17.50;99.90;;;;;;5110480;27;20040;-70
2022/09/07 05:54:01;;;;;;;18.20;16.25;;;17.50;99.90;;;;;;5110514;28;20406;-70
2022/09/07 05:56:27;;;;;;;19.63;17.63;;;17.50;99.90;;;;;;5094876;28;20127;-70
2022/09/07 05:58:53;;;;;;;17.35;15.55;;;17.40;99.90;;;;;;5104654;28;20044;-70
2022/09/07 06:01:18;;;;;;;10.73;8.75;;;17.40;99.90;;;;;;5118287;27;20042;-73
2022/09/07 06:03:44;;;;;;;19.00;16.27;;;17.40;99.90;;;;;;5121996;27;20065;-70
2022/09/07 06:06:13;;;;;;;17.30;15.50;;;17.50;99.90;;;;;;5136823;27;20372;-70
2022/09/07 06:08:42;;;;;;;18.33;16.42;;;17.60;99.90;;;;;;5117067;27;20556;-70
2022/09/07 06:11:13;;;;;;;18.27;16.08;;;17.60;99.90;;;;;;5109451;28;20454;-70
2022/09/07 06:13:39;;;;;;;18.23;16.25;;;17.70;99.90;;;;;;5115041;28;20049;-70
2022/09/07 06:16:06;;;;;;;19.33;17.33;;;17.70;99.90;;;;;;5116146;28;20387;-70
2022/09/07 06:18:34;;;;;;;18.75;16.05;;;17.70;99.90;;;;;;5102009;28;20472;-70
2022/09/07 06:21:06;;;;;;;19.35;16.38;;;17.70;99.90;;;;;;5096726;28;20054;-70
2022/09/07 06:23:32;;;;;;;22.63;19.48;;;17.80;99.90;;;;;;5114882;28;20047;-70
2022/09/07 06:25:58;;;;;;;18.20;16.35;;;17.70;99.90;;;;;;5114603;28;20036;-70
2022/09/07 06:28:40;;;;;;;18.77;16.88;;;17.70;99.90;;;;;;5110463;28;20034;-70
2022/09/07 06:31:12;;;;;;;20.00;17.90;;;17.70;99.90;;;;;;5114662;28;20043;-70
2022/09/07 06:33:38;;;;;;;18.10;16.30;;;17.70;99.90;;;;;;5115996;27;20084;-70
2022/09/07 06:36:06;;;;;;;18.48;16.58;;;17.70;99.90;;;;;;5115728;28;20123;-70
2022/09/07 06:38:35;;;;;;;20.65;18.23;;;17.70;99.90;;;;;;5144600;27;20050;-70
2022/09/07 06:41:07;;;;;;;19.88;16.50;;;17.70;99.90;;;;;;5109102;28;20399;-70
2022/09/07 06:43:33;;;;;;;19.23;17.17;;;17.80;99.90;;;;;;5097400;28;20052;-70
2022/09/07 06:45:59;;;;;;;19.75;17.75;;;17.80;99.90;;;;;;5115312;28;20036;-70
2022/09/07 06:48:26;;;;;;;19.27;16.70;;;17.80;99.90;;;;;;5099922;28;20089;-76
2022/09/07 06:51:01;;;;;;;15.48;13.43;;;17.80;99.90;;;;;;5106436;28;20047;-77
2022/09/07 06:53:29;;;;;;;25.80;15.60;;;18.00;99.90;;;;;;5114248;28;20514;-74
2022/09/07 06:55:55;;;;;;;18.45;16.55;;;18.00;99.90;;;;;;5115515;28;20044;-69
2022/09/07 06:58:23;;;;;;;20.80;18.58;;;18.00;99.90;;;;;;5110148;28;20044;-70
2022/09/07 07:00:49;;;;;;;20.05;17.92;;;18.00;99.90;;;;;;5115242;28;20078;-71
2022/09/07 07:03:15;;;;;;;20.70;18.58;;;18.00;99.90;;;;;;5115234;28;20443;-71
2022/09/07 07:05:41;;;;;;;18.58;16.35;;;18.00;99.90;;;;;;5115113;28;20480;-71
2022/09/07 07:08:06;;;;;;;18.30;16.40;;;18.00;99.90;;;;;;5113868;28;20082;-71
2022/09/07 07:10:36;;;;;;;19.13;17.15;;;17.90;99.90;;;;;;5148335;27;20067;-70
2022/09/07 07:13:02;;;;;;;19.35;17.38;;;17.90;99.90;;;;;;5115075;28;20110;-70
2022/09/07 07:15:29;;;;;;;21.67;19.48;;;18.00;99.90;;;;;;5113789;28;20165;-70
2022/09/07 07:17:55;;;;;;;20.83;17.90;;;17.90;99.90;;;;;;5113656;28;20069;-71
2022/09/07 07:20:20;;;;;;;19.75;17.67;;;17.90;99.90;;;;;;5114868;28;20075;-70
2022/09/07 07:22:50;;;;;;;19.35;17.27;;;18.10;99.90;;;;;;5111827;28;20036;-70
2022/09/07 07:25:17;;;;;;;21.13;17.17;;;18.10;99.90;;;;;;5115033;28;20031;-70
2022/09/07 07:27:44;;;;;;;20.55;18.35;;;18.10;99.90;;;;;;5114811;28;20039;-71
2022/09/07 07:30:11;;;;;;;20.67;18.63;;;18.10;99.90;;;;;;5113314;28;20035;-70
2022/09/07 07:32:37;;;;;;;19.70;17.70;;;18.20;99.90;;;;;;5112851;28;20036;-70
2022/09/07 07:35:03;;;;;;;20.17;18.10;;;18.20;99.90;;;;;;5115165;28;20028;-70
2022/09/07 07:37:28;;;;;;;21.10;18.90;;;18.30;99.90;;;;;;5114552;28;20039;-70
2022/09/07 07:39:54;;;;;;;21.48;19.30;;;18.30;99.90;;;;;;5114612;28;20422;-70
2022/09/07 07:42:19;;;;;;;20.08;18.08;;;18.40;99.90;;;;;;5114640;28;20035;-70
2022/09/07 07:44:45;;;;;;;21.52;19.33;;;18.50;99.90;;;;;;5114504;28;20457;-70
2022/09/07 07:47:10;;;;;;;21.85;19.52;;;18.40;99.90;;;;;;5114266;28;20440;-70
2022/09/07 07:49:36;;;;;;;21.55;19.40;;;18.50;99.90;;;;;;5114636;28;20031;-70
2022/09/07 07:52:02;;;;;;;20.85;18.75;;;18.40;99.90;;;;;;5096166;28;20126;-70
2022/09/07 07:54:27;;;;;;;21.02;18.83;;;18.40;99.90;;;;;;5114269;28;20043;-70
2022/09/07 07:56:53;;;;;;;22.17;19.75;;;18.50;99.90;;;;;;5114151;28;20051;-70
2022/09/07 07:59:18;;;;;;;20.95;18.83;;;18.60;99.90;;;;;;5114157;28;20085;-70
2022/09/07 08:01:44;;;;;;;20.70;18.50;;;18.70;99.90;;;;;;5112799;27;20172;-70
2022/09/07 08:04:09;;;;;;;21.92;19.83;;;18.60;99.90;;;;;;5112012;28;20047;-70
2022/09/07 08:06:35;;;;;;;20.77;18.58;;;18.70;99.90;;;;;;5114228;28;20043;-70
2022/09/07 08:09:01;;;;;;;22.35;20.10;;;18.70;99.90;;;;;;5114141;28;20106;-70
2022/09/07 08:11:29;;;;;;;21.70;19.50;;;18.70;99.90;;;;;;5114056;28;20505;-70
2022/09/07 08:13:55;;;;;;;21.52;19.27;;;18.70;99.90;;;;;;5113745;28;20530;-70
2022/09/07 08:16:21;;;;;;;22.15;19.95;;;18.80;99.90;;;;;;5113946;28;20445;-70
2022/09/07 08:18:48;;;;;;;22.45;20.15;;;18.70;99.90;;;;;;5112694;28;20039;-69
2022/09/07 08:21:14;;;;;;;22.17;19.88;;;18.80;99.90;;;;;;5113101;27;20092;-70
2022/09/07 08:23:40;;;;;;;21.40;19.27;;;18.80;99.90;;;;;;5113898;28;20075;-70
2022/09/07 08:26:07;;;;;;;22.80;20.65;;;19.00;99.90;;;;;;5111731;28;20075;-69
2022/09/07 08:28:37;;;;;;;21.73;19.25;;;19.00;99.90;;;;;;5111391;28;20031;-70
2022/09/07 08:31:10;;;;;;;22.38;20.08;;;19.00;99.90;;;;;;5113577;28;20441;-70
2022/09/07 08:33:37;;;;;;;25.33;22.73;;;19.00;99.90;;;;;;5112784;28;20546;-69
2022/09/07 08:36:09;;;;;;;23.95;21.55;;;19.00;99.90;;;;;;5113761;28;20039;-70
2022/09/07 08:38:36;;;;;;;22.65;20.35;;;19.00;99.90;;;;;;5113816;28;20032;-69
2022/09/07 08:41:16;;;;;;;22.45;20.23;;;19.00;99.90;;;;;;5113399;28;20046;-69
2022/09/07 08:43:47;;;;;;;21.42;19.20;;;19.00;99.90;;;;;;5113604;28;20057;-70
2022/09/07 08:46:30;;;;;;;23.33;21.02;;;19.00;99.90;;;;;;5112356;28;20118;-70
2022/09/07 08:48:58;;;;;;;21.95;19.75;;;19.10;99.90;;;;;;5093276;28;20040;-69
2022/09/07 08:51:40;;;;;;;21.27;19.08;;;19.10;99.90;;;;;;5093230;28;20040;-69
2022/09/07 08:54:11;;;;;;;21.33;19.23;;;19.10;99.90;;;;;;5093129;28;20067;-69
2022/09/07 08:56:41;;;;;;;20.40;18.20;;;19.10;99.90;;;;;;5093168;28;20118;-69
2022/09/07 08:59:39;;;;;;;22.42;20.13;;;19.20;99.90;;;;;;5146176;27;20039;-70
2022/09/07 09:02:13;;;;;;;23.52;21.02;;;19.20;99.90;;;;;;5113530;28;20048;-70
2022/09/07 09:04:39;;;;;;;21.52;19.33;;;19.30;99.90;;;;;;5113368;28;20088;-69
2022/09/07 09:07:15;;;;;;;20.40;18.23;;;19.40;99.90;;;;;;5113354;28;20039;-69
2022/09/07 09:09:46;;;;;;;20.52;17.90;;;19.40;99.90;;;;;;5113506;28;20065;-69
2022/09/07 09:12:43;;;;;;;21.95;19.73;;;19.50;99.90;;;;;;5113377;28;20564;-69
2022/09/07 09:15:11;;;;;;;21.42;18.25;;;19.60;99.90;;;;;;5113174;28;20055;-70
2022/09/07 09:17:46;;;;;;;19.33;17.33;;;19.70;99.90;;;;;;5112030;28;20123;-70
2022/09/07 09:20:25;;;;;;;19.15;17.15;;;19.80;99.90;;;;;;5112009;28;20083;-70
2022/09/07 09:23:01;;;;;;;19.10;16.80;;;19.90;99.90;;;;;;5112138;28;20047;-70
2022/09/07 09:25:33;;;;;;;20.58;17.55;;;20.00;99.90;;;;;;5113231;28;20388;-69
2022/09/07 09:27:59;;;;;;;18.25;16.20;;;20.00;99.90;;;;;;5113143;28;20032;-69
2022/09/07 09:30:25;;;;;;;19.08;16.20;;;20.00;99.90;;;;;;5113345;28;20046;-70
2022/09/07 09:33:21;;;;;;;19.90;16.60;;;19.90;99.90;;;;;;5113283;28;20047;-69
2022/09/07 09:35:52;;;;;;;18.23;16.33;;;19.90;99.90;;;;;;5113141;28;20046;-70
2022/09/07 09:38:38;;;;;;;16.35;14.73;;;19.90;99.90;;;;;;5113250;28;20046;-70
2022/09/07 09:41:09;;;;;;;15.18;13.45;;;20.00;99.90;;;;;;5113293;28;20149;-70
2022/09/07 09:43:40;;;;;;;17.90;14.98;;;20.10;99.90;;;;;;5112118;28;20396;-69
2022/09/07 09:46:19;;;;;;;15.68;13.25;;;20.00;99.90;;;;;;5111694;28;20055;-70
2022/09/07 09:48:53;;;;;;;14.43;12.43;;;20.00;99.90;;;;;;5093516;28;20032;-77
2022/09/07 09:51:20;;;;;;;15.93;12.45;;;20.10;99.90;;;;;;5102731;28;20032;-77
2022/09/07 09:54:04;;;;;;;13.63;11.55;;;20.20;99.90;;;;;;5099806;28;20112;-69
2022/09/07 09:56:42;;;;;;;12.82;11.45;;;20.30;99.90;;;;;;5099930;27;20081;-69
2022/09/07 09:59:16;;;;;;;14.98;11.73;;;20.30;99.90;;;;;;5098365;27;20050;-69
2022/09/07 10:01:47;;;;;;;13.25;11.90;;;20.30;99.90;;;;;;5104025;28;20048;-69
2022/09/07 10:04:29;;;;;;;14.27;11.15;;;20.30;99.90;;;;;;5115590;28;20046;-69
2022/09/07 10:07:19;;;;;;;13.85;10.50;;;20.30;99.90;;;;;;5105026;28;20051;-69
2022/09/07 10:09:52;;;;;;;12.20;9.80;;;20.40;99.90;;;;;;5084526;28;20051;-69
2022/09/07 10:12:28;;;;;;;12.93;9.15;;;20.30;99.90;;;;;;5114077;27;20031;-69
2022/09/07 10:14:55;;;;;;;12.30;9.38;;;20.50;99.90;;;;;;5116106;28;20055;-69
2022/09/07 10:17:37;;;;;;;12.10;9.73;;;20.50;99.90;;;;;;5110589;28;20097;-69
2022/09/07 10:20:32;;;;;;;13.75;10.00;;;20.50;99.90;;;;;;5107785;27;20067;-69
2022/09/07 10:22:58;;;;;;;11.57;9.13;;;20.40;99.90;;;;;;5095720;28;20511;-69
2022/09/07 10:25:38;;;;;;;14.23;9.80;;;20.50;99.90;;;;;;5128536;27;20043;-69
2022/09/07 10:28:16;;;;;;;12.25;9.18;;;20.50;99.90;;;;;;5095882;28;20036;-69
2022/09/07 10:31:00;;;;;;;13.00;8.90;;;20.40;99.90;;;;;;5103584;28;20085;-69
2022/09/07 10:34:14;;;;;;;10.43;8.27;;;20.30;99.90;;;;;;5095505;28;20040;-69
2022/09/07 10:37:03;;;;;;;11.52;8.02;;;20.30;99.90;;;;;;5089709;28;20047;-69
2022/09/07 10:39:36;;;;;;;10.40;7.95;;;20.40;99.90;;;;;;5105439;28;20432;-70
2022/09/07 10:42:13;;;;;;;10.75;6.80;;;20.60;99.90;;;;;;5109200;27;20040;-78
2022/09/07 10:44:48;;;;;;;10.48;7.85;;;20.80;99.90;;;;;;5095496;28;20115;-69
2022/09/07 10:47:27;;;;;;;10.95;7.43;;;20.80;99.90;;;;;;5110813;28;20040;-69
2022/09/07 10:50:30;;;;;;;10.75;7.18;;;20.90;99.90;;;;;;5115493;28;20510;-70
2022/09/07 10:53:29;;;;;;;10.98;6.57;;;21.10;99.90;;;;;;5113325;28;20038;-74
2022/09/07 10:56:13;;;;;;;10.38;6.10;;;21.30;99.90;;;;;;5101952;28;20471;-74
2022/09/07 10:59:26;;;;;;;10.50;6.88;;;21.40;99.90;;;;;;5109729;27;20126;-74
2022/09/07 11:02:17;;;;;;;10.40;6.82;;;21.60;99.90;;;;;;5087835;27;20055;-69
2022/09/07 11:05:06;;;;;;;9.93;6.05;;;21.50;99.90;;;;;;5106326;28;20040;-69
2022/09/07 11:08:12;;;;;;;9.18;5.85;;;21.60;99.90;;;;;;5094258;28;20048;-69
2022/09/07 11:11:01;;;;;;;9.23;6.35;;;21.70;99.90;;;;;;5111102;28;20484;-70
2022/09/07 11:13:31;;;;;;;10.93;6.22;;;21.70;99.90;;;;;;5110136;27;20508;-69
2022/09/07 11:16:01;;;;;;;10.07;5.82;;;21.80;99.90;;;;;;5105167;28;20104;-70
2022/09/07 11:18:48;;;;;;;9.23;5.65;;;21.80;99.90;;;;;;5097311;28;20038;-69
2022/09/07 11:21:19;;;;;;;9.05;5.38;;;21.80;99.90;;;;;;5111198;27;20043;-69
2022/09/07 11:24:16;;;;;;;9.02;5.43;;;21.80;99.90;;;;;;5113710;28;20074;-69
2022/09/07 11:26:55;;;;;;;9.02;6.00;;;21.70;99.90;;;;;;5097550;28;20057;-69
2022/09/07 11:29:29;;;;;;;8.55;5.07;;;21.80;99.90;;;;;;5098699;27;20036;-69
2022/09/07 11:31:59;;;;;;;8.80;5.15;;;22.00;99.90;;;;;;5111957;28;20043;-69
2022/09/07 11:34:39;;;;;;;9.52;5.50;;;22.10;99.90;;;;;;5107714;28;20043;-69
2022/09/07 11:37:11;;;;;;;7.95;5.28;;;21.90;99.90;;;;;;5078529;28;20044;-69
2022/09/07 11:39:51;;;;;;;8.55;4.80;;;21.90;99.90;;;;;;5106796;28;20036;-69
2022/09/07 11:42:38;;;;;;;7.00;4.70;;;22.00;99.90;;;;;;5074048;28;20056;-69
2022/09/07 11:45:14;;;;;;;8.43;4.70;;;22.00;99.90;;;;;;5101205;28;20035;-69
2022/09/07 11:48:05;;;;;;;6.35;3.90;;;21.90;99.90;;;;;;5106278;28;20086;-69
2022/09/07 11:50:35;;;;;;;8.45;4.18;;;21.90;99.90;;;;;;5099703;28;20502;-69
2022/09/07 11:53:12;;;;;;;6.95;4.20;;;21.80;99.90;;;;;;5113795;28;20047;-69
2022/09/07 11:55:43;;;;;;;6.38;3.97;;;21.80;99.90;;;;;;5101248;28;20110;-69
2022/09/07 11:58:27;;;;;;;6.10;3.78;;;21.80;99.90;;;;;;5113772;28;20046;-70
2022/09/07 12:01:20;;;;;;;7.05;3.83;;;21.80;99.90;;;;;;5092895;28;20036;-70
2022/09/07 12:04:28;;;;;;;5.80;3.30;;;21.80;99.90;;;;;;5110542;27;20036;-70
2022/09/07 12:07:24;;;;;;;5.93;3.20;;;22.00;99.90;;;;;;5104656;28;20074;-70
2022/09/07 12:10:17;;;;;;;7.25;3.42;;;22.10;99.90;;;;;;5105312;28;20066;-69
2022/09/07 12:13:03;;;;;;;5.78;3.22;;;22.20;99.90;;;;;;5109335;28;20040;-70
2022/09/07 12:15:48;;;;;;;5.18;3.17;;;22.40;99.90;;;;;;5112065;28;20036;-70
2022/09/07 12:18:39;;;;;;;6.80;2.90;;;22.40;99.90;;;;;;5092996;28;20484;-70
2022/09/07 12:21:36;;;;;;;5.10;3.05;;;22.30;99.90;;;;;;5093389;28;20046;-70
2022/09/07 12:24:03;;;;;;;7.15;3.33;;;22.20;99.90;;;;;;5093494;28;20499;-70
2022/09/07 12:26:34;;;;;;;7.20;4.07;;;22.30;99.90;;;;;;5092766;28;20433;-70
2022/09/07 12:28:59;;;;;;;6.45;3.20;;;22.40;99.90;;;;;;5093134;28;20040;-69
2022/09/07 12:31:45;;;;;;;6.47;3.00;;;22.40;99.90;;;;;;5101170;28;20436;-69
2022/09/07 12:34:30;;;;;;;4.90;2.90;;;22.40;99.90;;;;;;5107462;28;20092;-70
2022/09/07 12:36:57;;;;;;;4.43;2.50;;;22.40;99.90;;;;;;5111040;28;20046;-70
2022/09/07 12:39:31;;;;;;;4.43;2.72;;;22.40;99.90;;;;;;5093053;28;20507;-70
2022/09/07 12:42:06;;;;;;;5.80;3.00;;;22.40;99.90;;;;;;5091934;28;20044;-69
2022/09/07 12:44:33;;;;;;;5.55;3.35;;;22.50;99.90;;;;;;5102109;28;20459;-70
2022/09/07 12:47:01;;;;;;;7.90;3.00;;;22.60;99.90;;;;;;5098439;28;20119;-69
2022/09/07 12:49:46;;;;;;;5.88;3.00;;;22.70;99.90;;;;;;5091105;28;20058;-70
2022/09/07 12:52:38;;;;;;;6.03;3.20;;;22.70;99.90;;;;;;5091236;28;20048;-70
2022/09/07 12:55:13;;;;;;;6.03;2.97;;;22.80;99.90;;;;;;5111484;28;20035;-70
2022/09/07 12:57:52;;;;;;;5.60;2.97;;;22.60;99.90;;;;;;5110284;28;20043;-70
2022/09/07 13:00:23;;;;;;;6.00;3.08;;;22.70;99.90;;;;;;5102117;28;20043;-70
2022/09/07 13:03:28;;;;;;;5.22;2.72;;;22.50;99.90;;;;;;5100155;28;20380;-69
2022/09/07 13:05:56;;;;;;;4.45;2.55;;;22.50;99.90;;;;;;5107894;28;20047;-69